sensor_id;sensor_type;location;lat;lon;timestamp;P1;durP1;ratioP1;P2;durP2;ratioP2
70840;SDS011;58465;51.534;9.934;2023-05-10T00:13:35;2.83;;;1.83;;
70840;SDS011;58465;51.534;9.934;2023-05-10T00:20:07;2.88;;;1.85;;
70840;SDS011;58465;51.534;9.934;2023-05-10T00:23:33;3.28;;;1.88;;
70840;SDS011;58465;51.534;9.934;2023-05-10T00:26:57;2.67;;;1.80;;
70840;SDS011;58465;51.534;9.934;2023-05-10T00:34:04;3.33;;;2.05;;
70840;SDS011;58465;51.534;9.934;2023-05-10T00:40:53;5.57;;;2.13;;
70840;SDS011;58465;51.534;9.934;2023-05-10T01:03:29;4.15;;;1.73;;
70840;SDS011;58465;51.534;9.934;2023-05-10T01:10:15;3.97;;;1.83;;
70840;SDS011;58465;51.534;9.934;2023-05-10T01:13:40;3.17;;;1.90;;
70840;SDS011;58465;51.534;9.934;2023-05-10T02:18:18;3.70;;;2.20;;
70840;SDS011;58465;51.534;9.934;2023-05-10T02:31:33;3.55;;;1.92;;
70840;SDS011;58465;51.534;9.934;2023-05-10T02:38:43;2.90;;;2.00;;
70840;SDS011;58465;51.534;9.934;2023-05-10T02:45:42;2.97;;;1.90;;
70840;SDS011;58465;51.534;9.934;2023-05-10T02:49:13;6.75;;;2.40;;
70840;SDS011;58465;51.534;9.934;2023-05-10T03:08:52;4.72;;;2.13;;
70840;SDS011;58465;51.534;9.934;2023-05-10T03:25:32;5.45;;;2.30;;
70840;SDS011;58465;51.534;9.934;2023-05-10T03:28:27;2.78;;;2.25;;
70840;SDS011;58465;51.534;9.934;2023-05-10T03:44:44;3.75;;;2.40;;
70840;SDS011;58465;51.534;9.934;2023-05-10T03:48:08;3.60;;;2.60;;
70840;SDS011;58465;51.534;9.934;2023-05-10T03:54:55;6.10;;;3.00;;
70840;SDS011;58465;51.534;9.934;2023-05-10T03:58:00;4.63;;;2.85;;
70840;SDS011;58465;51.534;9.934;2023-05-10T04:01:06;5.55;;;2.85;;
70840;SDS011;58465;51.534;9.934;2023-05-10T04:03:40;6.40;;;2.95;;
70840;SDS011;58465;51.534;9.934;2023-05-10T04:06:16;4.10;;;3.13;;
70840;SDS011;58465;51.534;9.934;2023-05-10T04:11:29;7.88;;;3.25;;
70840;SDS011;58465;51.534;9.934;2023-05-10T04:13:55;4.55;;;2.97;;
70840;SDS011;58465;51.534;9.934;2023-05-10T04:16:34;5.32;;;3.50;;
70840;SDS011;58465;51.534;9.934;2023-05-10T04:19:14;6.20;;;3.30;;
70840;SDS011;58465;51.534;9.934;2023-05-10T04:21:42;4.45;;;3.13;;
70840;SDS011;58465;51.534;9.934;2023-05-10T04:24:43;8.85;;;3.10;;
70840;SDS011;58465;51.534;9.934;2023-05-10T04:27:31;7.28;;;3.70;;
70840;SDS011;58465;51.534;9.934;2023-05-10T04:30:28;5.20;;;3.13;;
70840;SDS011;58465;51.534;9.934;2023-05-10T04:33:07;4.05;;;3.10;;
70840;SDS011;58465;51.534;9.934;2023-05-10T04:39:05;5.38;;;3.88;;
70840;SDS011;58465;51.534;9.934;2023-05-10T04:41:37;6.85;;;3.53;;
70840;SDS011;58465;51.534;9.934;2023-05-10T04:47:25;6.32;;;3.60;;
70840;SDS011;58465;51.534;9.934;2023-05-10T04:50:03;5.65;;;3.63;;
70840;SDS011;58465;51.534;9.934;2023-05-10T04:52:31;6.35;;;3.65;;
70840;SDS011;58465;51.534;9.934;2023-05-10T04:55:02;4.85;;;3.55;;
70840;SDS011;58465;51.534;9.934;2023-05-10T04:57:29;10.23;;;4.10;;
70840;SDS011;58465;51.534;9.934;2023-05-10T05:21:51;10.95;;;4.28;;
70840;SDS011;58465;51.534;9.934;2023-05-10T05:24:37;5.43;;;3.72;;
70840;SDS011;58465;51.534;9.934;2023-05-10T05:27:11;9.93;;;4.78;;
70840;SDS011;58465;51.534;9.934;2023-05-10T05:29:40;5.30;;;3.83;;
70840;SDS011;58465;51.534;9.934;2023-05-10T05:32:05;9.90;;;4.20;;
70840;SDS011;58465;51.534;9.934;2023-05-10T05:37:48;6.40;;;4.20;;
70840;SDS011;58465;51.534;9.934;2023-05-10T05:40:23;7.65;;;3.80;;
70840;SDS011;58465;51.534;9.934;2023-05-10T05:43:04;6.63;;;3.72;;
70840;SDS011;58465;51.534;9.934;2023-05-10T05:45:51;6.75;;;4.22;;
70840;SDS011;58465;51.534;9.934;2023-05-10T05:51:40;6.22;;;3.88;;
70840;SDS011;58465;51.534;9.934;2023-05-10T05:54:09;6.95;;;4.20;;
70840;SDS011;58465;51.534;9.934;2023-05-10T06:00:38;5.75;;;3.75;;
70840;SDS011;58465;51.534;9.934;2023-05-10T06:09:22;5.28;;;3.80;;
70840;SDS011;58465;51.534;9.934;2023-05-10T06:11:58;5.13;;;3.67;;
70840;SDS011;58465;51.534;9.934;2023-05-10T06:14:39;5.68;;;4.28;;
70840;SDS011;58465;51.534;9.934;2023-05-10T06:17:14;6.85;;;4.03;;
70840;SDS011;58465;51.534;9.934;2023-05-10T06:20:03;5.07;;;3.33;;
70840;SDS011;58465;51.534;9.934;2023-05-10T06:22:31;5.38;;;3.70;;
70840;SDS011;58465;51.534;9.934;2023-05-10T06:24:59;4.93;;;3.60;;
70840;SDS011;58465;51.534;9.934;2023-05-10T06:27:25;6.68;;;4.13;;
70840;SDS011;58465;51.534;9.934;2023-05-10T06:29:53;5.00;;;3.40;;
70840;SDS011;58465;51.534;9.934;2023-05-10T06:32:20;4.80;;;3.42;;
70840;SDS011;58465;51.534;9.934;2023-05-10T06:37:55;4.90;;;3.90;;
70840;SDS011;58465;51.534;9.934;2023-05-10T06:40:21;4.82;;;3.13;;
70840;SDS011;58465;51.534;9.934;2023-05-10T06:42:47;17.33;;;4.65;;
70840;SDS011;58465;51.534;9.934;2023-05-10T06:45:14;7.88;;;4.72;;
70840;SDS011;58465;51.534;9.934;2023-05-10T06:47:43;7.50;;;4.28;;
70840;SDS011;58465;51.534;9.934;2023-05-10T06:50:11;6.07;;;3.88;;
70840;SDS011;58465;51.534;9.934;2023-05-10T06:52:40;5.90;;;3.95;;
70840;SDS011;58465;51.534;9.934;2023-05-10T06:58:37;3.47;;;2.67;;
70840;SDS011;58465;51.534;9.934;2023-05-10T07:01:10;4.63;;;2.65;;
70840;SDS011;58465;51.534;9.934;2023-05-10T07:10:25;5.05;;;2.72;;
70840;SDS011;58465;51.534;9.934;2023-05-10T07:12:54;3.85;;;2.30;;
70840;SDS011;58465;51.534;9.934;2023-05-10T07:15:21;1.98;;;1.30;;
70840;SDS011;58465;51.534;9.934;2023-05-10T07:18:15;1.88;;;1.33;;
70840;SDS011;58465;51.534;9.934;2023-05-10T07:21:11;2.67;;;1.30;;
70840;SDS011;58465;51.534;9.934;2023-05-10T07:23:49;0.77;;;0.70;;
70840;SDS011;58465;51.534;9.934;2023-05-10T07:26:24;1.10;;;0.80;;
70840;SDS011;58465;51.534;9.934;2023-05-10T07:38:44;0.60;;;0.60;;
70840;SDS011;58465;51.534;9.934;2023-05-10T07:41:12;1.48;;;0.70;;
70840;SDS011;58465;51.534;9.934;2023-05-10T07:43:40;0.85;;;0.70;;
70840;SDS011;58465;51.534;9.934;2023-05-10T07:46:12;1.17;;;0.75;;
70840;SDS011;58465;51.534;9.934;2023-05-10T07:48:41;2.95;;;0.70;;
70840;SDS011;58465;51.534;9.934;2023-05-10T07:51:19;2.78;;;1.00;;
70840;SDS011;58465;51.534;9.934;2023-05-10T07:53:51;1.13;;;0.50;;
70840;SDS011;58465;51.534;9.934;2023-05-10T07:56:27;1.33;;;0.73;;
70840;SDS011;58465;51.534;9.934;2023-05-10T07:59:06;1.83;;;1.20;;
70840;SDS011;58465;51.534;9.934;2023-05-10T08:01:33;1.15;;;0.68;;
70840;SDS011;58465;51.534;9.934;2023-05-10T08:04:25;1.38;;;0.63;;
70840;SDS011;58465;51.534;9.934;2023-05-10T08:06:54;1.67;;;1.05;;
70840;SDS011;58465;51.534;9.934;2023-05-10T08:09:20;2.17;;;0.60;;
70840;SDS011;58465;51.534;9.934;2023-05-10T08:11:48;0.70;;;0.50;;
70840;SDS011;58465;51.534;9.934;2023-05-10T08:14:14;1.55;;;0.60;;
70840;SDS011;58465;51.534;9.934;2023-05-10T08:16:41;2.25;;;0.88;;
70840;SDS011;58465;51.534;9.934;2023-05-10T08:19:12;2.20;;;1.00;;
70840;SDS011;58465;51.534;9.934;2023-05-10T08:21:39;7.53;;;6.18;;
70840;SDS011;58465;51.534;9.934;2023-05-10T08:24:34;1.75;;;0.82;;
70840;SDS011;58465;51.534;9.934;2023-05-10T08:27:29;0.60;;;0.60;;
70840;SDS011;58465;51.534;9.934;2023-05-10T08:30:12;0.77;;;0.50;;
70840;SDS011;58465;51.534;9.934;2023-05-10T08:32:47;0.85;;;0.73;;
70840;SDS011;58465;51.534;9.934;2023-05-10T08:35:12;0.82;;;0.60;;
70840;SDS011;58465;51.534;9.934;2023-05-10T08:37:37;3.70;;;1.00;;
70840;SDS011;58465;51.534;9.934;2023-05-10T08:40:06;8.63;;;0.75;;
70840;SDS011;58465;51.534;9.934;2023-05-10T08:42:35;2.83;;;1.38;;
70840;SDS011;58465;51.534;9.934;2023-05-10T08:45:04;9.20;;;5.43;;
70840;SDS011;58465;51.534;9.934;2023-05-10T08:47:30;1.00;;;0.88;;
70840;SDS011;58465;51.534;9.934;2023-05-10T08:49:56;2.05;;;0.93;;
70840;SDS011;58465;51.534;9.934;2023-05-10T08:52:25;2.92;;;1.63;;
70840;SDS011;58465;51.534;9.934;2023-05-10T08:54:53;0.77;;;0.70;;
70840;SDS011;58465;51.534;9.934;2023-05-10T08:57:18;3.03;;;0.82;;
70840;SDS011;58465;51.534;9.934;2023-05-10T08:59:53;1.83;;;0.70;;
70840;SDS011;58465;51.534;9.934;2023-05-10T09:03:13;1.73;;;0.77;;
70840;SDS011;58465;51.534;9.934;2023-05-10T09:05:39;1.83;;;0.70;;
70840;SDS011;58465;51.534;9.934;2023-05-10T09:08:05;1.92;;;0.90;;
70840;SDS011;58465;51.534;9.934;2023-05-10T09:10:34;0.75;;;0.52;;
70840;SDS011;58465;51.534;9.934;2023-05-10T09:13:29;0.85;;;0.70;;
70840;SDS011;58465;51.534;9.934;2023-05-10T09:20:08;0.80;;;0.70;;
70840;SDS011;58465;51.534;9.934;2023-05-10T09:22:34;1.45;;;0.70;;
70840;SDS011;58465;51.534;9.934;2023-05-10T09:28:23;1.52;;;0.70;;
70840;SDS011;58465;51.534;9.934;2023-05-10T09:30:54;0.73;;;0.57;;
70840;SDS011;58465;51.534;9.934;2023-05-10T09:33:29;1.42;;;0.60;;
70840;SDS011;58465;51.534;9.934;2023-05-10T09:37:01;0.50;;;0.50;;
70840;SDS011;58465;51.534;9.934;2023-05-10T09:49:59;0.88;;;0.82;;
70840;SDS011;58465;51.534;9.934;2023-05-10T09:55:42;3.28;;;0.82;;
70840;SDS011;58465;51.534;9.934;2023-05-10T09:58:20;0.68;;;0.60;;
70840;SDS011;58465;51.534;9.934;2023-05-10T10:01:49;4.78;;;0.77;;
70840;SDS011;58465;51.534;9.934;2023-05-10T10:04:17;1.83;;;0.73;;
70840;SDS011;58465;51.534;9.934;2023-05-10T10:07:41;1.00;;;0.70;;
70840;SDS011;58465;51.534;9.934;2023-05-10T10:13:41;0.80;;;0.80;;
70840;SDS011;58465;51.534;9.934;2023-05-10T10:16:08;1.15;;;0.70;;
70840;SDS011;58465;51.534;9.934;2023-05-10T10:18:56;1.00;;;0.50;;
70840;SDS011;58465;51.534;9.934;2023-05-10T10:21:39;1.10;;;0.63;;
70840;SDS011;58465;51.534;9.934;2023-05-10T10:30:24;5.07;;;0.80;;
70840;SDS011;58465;51.534;9.934;2023-05-10T10:33:30;1.63;;;0.68;;
70840;SDS011;58465;51.534;9.934;2023-05-10T10:36:09;2.40;;;0.73;;
70840;SDS011;58465;51.534;9.934;2023-05-10T10:54:38;3.92;;;1.80;;
70840;SDS011;58465;51.534;9.934;2023-05-10T11:03:15;4.50;;;1.98;;
70840;SDS011;58465;51.534;9.934;2023-05-10T11:09:43;3.88;;;1.40;;
70840;SDS011;58465;51.534;9.934;2023-05-10T11:15:57;3.83;;;0.93;;
70840;SDS011;58465;51.534;9.934;2023-05-10T11:18:28;2.60;;;0.82;;
70840;SDS011;58465;51.534;9.934;2023-05-10T11:22:11;3.58;;;1.10;;
70840;SDS011;58465;51.534;9.934;2023-05-10T11:24:39;13.82;;;1.52;;
70840;SDS011;58465;51.534;9.934;2023-05-10T11:27:08;3.25;;;0.90;;
70840;SDS011;58465;51.534;9.934;2023-05-10T11:29:44;1.88;;;0.98;;
70840;SDS011;58465;51.534;9.934;2023-05-10T11:32:19;2.97;;;0.90;;
70840;SDS011;58465;51.534;9.934;2023-05-10T11:38:55;2.10;;;0.82;;
70840;SDS011;58465;51.534;9.934;2023-05-10T11:41:21;1.48;;;0.93;;
70840;SDS011;58465;51.534;9.934;2023-05-10T11:47:13;0.60;;;0.60;;
70840;SDS011;58465;51.534;9.934;2023-05-10T11:49:47;1.13;;;0.80;;
70840;SDS011;58465;51.534;9.934;2023-05-10T11:59:57;1.85;;;0.88;;
70840;SDS011;58465;51.534;9.934;2023-05-10T12:02:24;3.60;;;1.05;;
70840;SDS011;58465;51.534;9.934;2023-05-10T12:04:56;0.88;;;0.63;;
70840;SDS011;58465;51.534;9.934;2023-05-10T12:07:25;2.08;;;0.80;;
70840;SDS011;58465;51.534;9.934;2023-05-10T12:10:14;1.40;;;0.77;;
70840;SDS011;58465;51.534;9.934;2023-05-10T12:12:46;0.70;;;0.60;;
70840;SDS011;58465;51.534;9.934;2023-05-10T12:15:20;1.55;;;1.17;;
70840;SDS011;58465;51.534;9.934;2023-05-10T12:17:50;2.38;;;1.20;;
70840;SDS011;58465;51.534;9.934;2023-05-10T12:23:29;2.88;;;1.50;;
70840;SDS011;58465;51.534;9.934;2023-05-10T12:26:03;1.92;;;1.40;;
70840;SDS011;58465;51.534;9.934;2023-05-10T12:29:17;2.00;;;1.52;;
70840;SDS011;58465;51.534;9.934;2023-05-10T12:31:54;2.95;;;1.55;;
70840;SDS011;58465;51.534;9.934;2023-05-10T12:34:51;2.67;;;1.70;;
70840;SDS011;58465;51.534;9.934;2023-05-10T12:37:27;2.92;;;1.83;;
70840;SDS011;58465;51.534;9.934;2023-05-10T12:40:30;2.63;;;1.70;;
70840;SDS011;58465;51.534;9.934;2023-05-10T12:46:31;5.18;;;1.92;;
70840;SDS011;58465;51.534;9.934;2023-05-10T12:49:00;2.60;;;2.00;;
70840;SDS011;58465;51.534;9.934;2023-05-10T12:55:02;3.88;;;2.33;;
70840;SDS011;58465;51.534;9.934;2023-05-10T13:00:16;5.40;;;3.00;;
70840;SDS011;58465;51.534;9.934;2023-05-10T13:02:42;4.13;;;2.50;;
70840;SDS011;58465;51.534;9.934;2023-05-10T13:05:32;4.60;;;2.50;;
70840;SDS011;58465;51.534;9.934;2023-05-10T13:08:08;3.25;;;2.13;;
70840;SDS011;58465;51.534;9.934;2023-05-10T13:10:45;4.80;;;2.90;;
70840;SDS011;58465;51.534;9.934;2023-05-10T13:13:51;3.20;;;2.50;;
70840;SDS011;58465;51.534;9.934;2023-05-10T13:20:24;6.65;;;3.10;;
70840;SDS011;58465;51.534;9.934;2023-05-10T13:26:49;4.55;;;2.67;;
70840;SDS011;58465;51.534;9.934;2023-05-10T13:29:16;4.85;;;2.67;;
70840;SDS011;58465;51.534;9.934;2023-05-10T13:31:56;3.47;;;2.50;;
70840;SDS011;58465;51.534;9.934;2023-05-10T13:46:06;3.50;;;2.38;;
70840;SDS011;58465;51.534;9.934;2023-05-10T13:49:18;4.35;;;2.47;;
70840;SDS011;58465;51.534;9.934;2023-05-10T14:00:39;8.40;;;2.40;;
70840;SDS011;58465;51.534;9.934;2023-05-10T14:06:28;3.63;;;2.60;;
70840;SDS011;58465;51.534;9.934;2023-05-10T14:08:58;6.90;;;2.70;;
70840;SDS011;58465;51.534;9.934;2023-05-10T14:14:46;7.20;;;3.97;;
70840;SDS011;58465;51.534;9.934;2023-05-10T14:23:09;3.50;;;2.75;;
70840;SDS011;58465;51.534;9.934;2023-05-10T14:28:57;4.20;;;2.97;;
70840;SDS011;58465;51.534;9.934;2023-05-10T14:31:26;4.72;;;2.90;;
70840;SDS011;58465;51.534;9.934;2023-05-10T14:34:24;3.65;;;2.50;;
70840;SDS011;58465;51.534;9.934;2023-05-10T14:36:50;6.35;;;3.15;;
70840;SDS011;58465;51.534;9.934;2023-05-10T14:39:40;6.30;;;2.92;;
70840;SDS011;58465;51.534;9.934;2023-05-10T14:42:35;4.00;;;2.55;;
70840;SDS011;58465;51.534;9.934;2023-05-10T14:45:00;5.00;;;2.80;;
70840;SDS011;58465;51.534;9.934;2023-05-10T14:47:26;5.30;;;3.35;;
70840;SDS011;58465;51.534;9.934;2023-05-10T14:49:54;3.80;;;3.00;;
70840;SDS011;58465;51.534;9.934;2023-05-10T14:52:19;5.90;;;3.25;;
70840;SDS011;58465;51.534;9.934;2023-05-10T14:54:49;4.35;;;2.90;;
70840;SDS011;58465;51.534;9.934;2023-05-10T15:00:16;6.10;;;2.63;;
70840;SDS011;58465;51.534;9.934;2023-05-10T15:02:51;5.45;;;2.83;;
70840;SDS011;58465;51.534;9.934;2023-05-10T15:05:17;4.65;;;2.60;;
70840;SDS011;58465;51.534;9.934;2023-05-10T15:07:43;3.10;;;2.35;;
70840;SDS011;58465;51.534;9.934;2023-05-10T15:13:34;5.50;;;2.40;;
70840;SDS011;58465;51.534;9.934;2023-05-10T15:16:08;5.88;;;2.45;;
70840;SDS011;58465;51.534;9.934;2023-05-10T15:22:24;3.10;;;2.00;;
70840;SDS011;58465;51.534;9.934;2023-05-10T15:24:54;11.63;;;2.60;;
70840;SDS011;58465;51.534;9.934;2023-05-10T15:30:43;6.10;;;2.33;;
70840;SDS011;58465;51.534;9.934;2023-05-10T15:33:25;2.28;;;1.80;;
70840;SDS011;58465;51.534;9.934;2023-05-10T15:36:19;4.43;;;1.80;;
70840;SDS011;58465;51.534;9.934;2023-05-10T15:42:06;6.97;;;2.17;;
70840;SDS011;58465;51.534;9.934;2023-05-10T15:44:35;5.88;;;1.50;;
70840;SDS011;58465;51.534;9.934;2023-05-10T15:47:20;5.18;;;2.00;;
70840;SDS011;58465;51.534;9.934;2023-05-10T15:50:08;8.73;;;2.90;;
70840;SDS011;58465;51.534;9.934;2023-05-10T15:55:42;7.57;;;2.00;;
70840;SDS011;58465;51.534;9.934;2023-05-10T15:58:07;10.98;;;2.50;;
70840;SDS011;58465;51.534;9.934;2023-05-10T16:00:32;8.23;;;2.00;;
70840;SDS011;58465;51.534;9.934;2023-05-10T16:04:01;4.15;;;1.77;;
70840;SDS011;58465;51.534;9.934;2023-05-10T16:06:27;5.32;;;1.60;;
70840;SDS011;58465;51.534;9.934;2023-05-10T16:08:52;2.83;;;1.75;;
70840;SDS011;58465;51.534;9.934;2023-05-10T16:11:17;4.78;;;1.77;;
70840;SDS011;58465;51.534;9.934;2023-05-10T16:13:43;3.83;;;1.50;;
70840;SDS011;58465;51.534;9.934;2023-05-10T16:16:08;3.00;;;1.88;;
70840;SDS011;58465;51.534;9.934;2023-05-10T16:18:33;8.77;;;1.88;;
70840;SDS011;58465;51.534;9.934;2023-05-10T16:20:59;12.15;;;2.08;;
70840;SDS011;58465;51.534;9.934;2023-05-10T16:23:25;6.15;;;2.13;;
70840;SDS011;58465;51.534;9.934;2023-05-10T16:28:15;18.88;;;2.88;;
70840;SDS011;58465;51.534;9.934;2023-05-10T16:30:41;3.67;;;2.35;;
70840;SDS011;58465;51.534;9.934;2023-05-10T16:33:06;8.43;;;2.85;;
70840;SDS011;58465;51.534;9.934;2023-05-10T16:35:31;10.15;;;3.58;;
70840;SDS011;58465;51.534;9.934;2023-05-10T16:37:56;8.88;;;3.42;;
70840;SDS011;58465;51.534;9.934;2023-05-10T16:40:21;4.97;;;3.30;;
70840;SDS011;58465;51.534;9.934;2023-05-10T16:42:48;11.75;;;2.72;;
70840;SDS011;58465;51.534;9.934;2023-05-10T16:45:13;8.85;;;4.40;;
70840;SDS011;58465;51.534;9.934;2023-05-10T16:47:41;4.68;;;2.90;;
70840;SDS011;58465;51.534;9.934;2023-05-10T16:50:07;7.68;;;3.58;;
70840;SDS011;58465;51.534;9.934;2023-05-10T16:52:33;6.15;;;4.10;;
70840;SDS011;58465;51.534;9.934;2023-05-10T16:55:00;6.88;;;3.65;;
70840;SDS011;58465;51.534;9.934;2023-05-10T16:57:25;5.63;;;3.45;;
70840;SDS011;58465;51.534;9.934;2023-05-10T16:59:51;6.07;;;3.60;;
70840;SDS011;58465;51.534;9.934;2023-05-10T17:02:20;5.78;;;3.88;;
70840;SDS011;58465;51.534;9.934;2023-05-10T17:04:46;6.35;;;3.97;;
70840;SDS011;58465;51.534;9.934;2023-05-10T17:07:11;8.77;;;5.00;;
70840;SDS011;58465;51.534;9.934;2023-05-10T17:09:38;8.10;;;4.20;;
70840;SDS011;58465;51.534;9.934;2023-05-10T17:12:04;6.22;;;4.07;;
70840;SDS011;58465;51.534;9.934;2023-05-10T17:14:30;8.30;;;4.25;;
70840;SDS011;58465;51.534;9.934;2023-05-10T17:16:56;12.43;;;4.00;;
70840;SDS011;58465;51.534;9.934;2023-05-10T17:19:21;7.43;;;4.38;;
70840;SDS011;58465;51.534;9.934;2023-05-10T17:21:47;5.80;;;4.03;;
70840;SDS011;58465;51.534;9.934;2023-05-10T17:24:12;8.98;;;4.20;;
70840;SDS011;58465;51.534;9.934;2023-05-10T17:26:38;6.47;;;4.35;;
70840;SDS011;58465;51.534;9.934;2023-05-10T17:29:03;7.25;;;3.92;;
70840;SDS011;58465;51.534;9.934;2023-05-10T17:31:28;11.38;;;4.20;;
70840;SDS011;58465;51.534;9.934;2023-05-10T17:33:54;8.00;;;3.58;;
70840;SDS011;58465;51.534;9.934;2023-05-10T17:36:20;7.57;;;4.28;;
70840;SDS011;58465;51.534;9.934;2023-05-10T17:38:45;10.68;;;5.40;;
70840;SDS011;58465;51.534;9.934;2023-05-10T17:41:12;6.90;;;4.28;;
70840;SDS011;58465;51.534;9.934;2023-05-10T17:43:38;6.47;;;4.28;;
70840;SDS011;58465;51.534;9.934;2023-05-10T17:46:03;6.55;;;4.18;;
70840;SDS011;58465;51.534;9.934;2023-05-10T17:48:29;6.00;;;4.05;;
70840;SDS011;58465;51.534;9.934;2023-05-10T17:50:54;5.75;;;3.72;;
70840;SDS011;58465;51.534;9.934;2023-05-10T17:53:20;6.53;;;4.40;;
70840;SDS011;58465;51.534;9.934;2023-05-10T17:55:45;7.18;;;4.32;;
70840;SDS011;58465;51.534;9.934;2023-05-10T17:58:11;9.25;;;4.72;;
70840;SDS011;58465;51.534;9.934;2023-05-10T18:00:36;11.38;;;6.25;;
70840;SDS011;58465;51.534;9.934;2023-05-10T18:03:03;7.63;;;4.05;;
70840;SDS011;58465;51.534;9.934;2023-05-10T18:05:29;6.85;;;4.25;;
70840;SDS011;58465;51.534;9.934;2023-05-10T18:07:55;5.90;;;3.88;;
70840;SDS011;58465;51.534;9.934;2023-05-10T18:10:20;10.02;;;4.53;;
70840;SDS011;58465;51.534;9.934;2023-05-10T18:12:46;10.82;;;4.30;;
70840;SDS011;58465;51.534;9.934;2023-05-10T18:15:11;5.78;;;4.00;;
70840;SDS011;58465;51.534;9.934;2023-05-10T18:17:36;6.43;;;3.72;;
70840;SDS011;58465;51.534;9.934;2023-05-10T18:20:01;5.82;;;3.78;;
70840;SDS011;58465;51.534;9.934;2023-05-10T18:22:27;7.25;;;4.22;;
70840;SDS011;58465;51.534;9.934;2023-05-10T18:24:52;5.30;;;3.80;;
70840;SDS011;58465;51.534;9.934;2023-05-10T18:27:18;5.80;;;3.92;;
70840;SDS011;58465;51.534;9.934;2023-05-10T18:29:43;6.93;;;4.07;;
70840;SDS011;58465;51.534;9.934;2023-05-10T18:32:08;5.70;;;3.78;;
70840;SDS011;58465;51.534;9.934;2023-05-10T18:34:34;6.95;;;4.07;;
70840;SDS011;58465;51.534;9.934;2023-05-10T18:36:59;7.05;;;3.65;;
70840;SDS011;58465;51.534;9.934;2023-05-10T18:39:26;6.38;;;3.58;;
70840;SDS011;58465;51.534;9.934;2023-05-10T18:41:51;10.13;;;3.67;;
70840;SDS011;58465;51.534;9.934;2023-05-10T18:44:17;7.90;;;3.83;;
70840;SDS011;58465;51.534;9.934;2023-05-10T18:46:42;6.95;;;3.47;;
70840;SDS011;58465;51.534;9.934;2023-05-10T18:49:08;5.38;;;3.70;;
70840;SDS011;58465;51.534;9.934;2023-05-10T18:51:33;6.90;;;3.90;;
70840;SDS011;58465;51.534;9.934;2023-05-10T18:53:58;7.70;;;3.78;;
70840;SDS011;58465;51.534;9.934;2023-05-10T18:56:24;9.57;;;3.63;;
70840;SDS011;58465;51.534;9.934;2023-05-10T18:58:49;5.30;;;3.25;;
70840;SDS011;58465;51.534;9.934;2023-05-10T19:01:15;7.65;;;3.30;;
70840;SDS011;58465;51.534;9.934;2023-05-10T19:03:40;6.13;;;3.15;;
70840;SDS011;58465;51.534;9.934;2023-05-10T19:06:06;6.13;;;3.63;;
70840;SDS011;58465;51.534;9.934;2023-05-10T19:08:31;7.10;;;3.38;;
70840;SDS011;58465;51.534;9.934;2023-05-10T19:10:56;5.25;;;3.15;;
70840;SDS011;58465;51.534;9.934;2023-05-10T19:13:22;6.53;;;3.17;;
70840;SDS011;58465;51.534;9.934;2023-05-10T19:15:59;5.43;;;3.40;;
70840;SDS011;58465;51.534;9.934;2023-05-10T19:18:28;9.65;;;3.65;;
70840;SDS011;58465;51.534;9.934;2023-05-10T19:20:53;5.00;;;3.40;;
70840;SDS011;58465;51.534;9.934;2023-05-10T19:23:20;7.85;;;4.95;;
70840;SDS011;58465;51.534;9.934;2023-05-10T19:25:45;5.68;;;3.45;;
70840;SDS011;58465;51.534;9.934;2023-05-10T19:28:10;13.07;;;3.67;;
70840;SDS011;58465;51.534;9.934;2023-05-10T19:30:35;5.10;;;3.10;;
70840;SDS011;58465;51.534;9.934;2023-05-10T19:33:01;6.57;;;3.40;;
70840;SDS011;58465;51.534;9.934;2023-05-10T19:35:28;6.53;;;3.90;;
70840;SDS011;58465;51.534;9.934;2023-05-10T19:37:53;7.00;;;4.38;;
70840;SDS011;58465;51.534;9.934;2023-05-10T19:40:18;5.70;;;3.58;;
70840;SDS011;58465;51.534;9.934;2023-05-10T19:42:43;6.90;;;3.95;;
70840;SDS011;58465;51.534;9.934;2023-05-10T19:45:09;9.45;;;4.60;;
70840;SDS011;58465;51.534;9.934;2023-05-10T19:47:35;5.35;;;3.50;;
70840;SDS011;58465;51.534;9.934;2023-05-10T19:50:00;7.10;;;4.20;;
70840;SDS011;58465;51.534;9.934;2023-05-10T19:52:26;6.97;;;4.05;;
70840;SDS011;58465;51.534;9.934;2023-05-10T19:54:51;6.35;;;4.10;;
70840;SDS011;58465;51.534;9.934;2023-05-10T19:57:17;6.88;;;4.22;;
70840;SDS011;58465;51.534;9.934;2023-05-10T19:59:42;7.15;;;4.40;;
70840;SDS011;58465;51.534;9.934;2023-05-10T20:02:07;6.25;;;4.03;;
70840;SDS011;58465;51.534;9.934;2023-05-10T20:04:33;8.23;;;4.60;;
70840;SDS011;58465;51.534;9.934;2023-05-10T20:06:58;8.18;;;5.18;;
70840;SDS011;58465;51.534;9.934;2023-05-10T20:09:23;9.35;;;4.80;;
70840;SDS011;58465;51.534;9.934;2023-05-10T20:11:48;8.88;;;5.00;;
70840;SDS011;58465;51.534;9.934;2023-05-10T20:14:13;8.68;;;4.70;;
70840;SDS011;58465;51.534;9.934;2023-05-10T20:16:39;7.63;;;4.82;;
70840;SDS011;58465;51.534;9.934;2023-05-10T20:19:04;7.85;;;4.50;;
70840;SDS011;58465;51.534;9.934;2023-05-10T20:21:29;9.88;;;4.65;;
70840;SDS011;58465;51.534;9.934;2023-05-10T20:23:55;8.95;;;4.47;;
70840;SDS011;58465;51.534;9.934;2023-05-10T20:26:20;10.55;;;4.35;;
70840;SDS011;58465;51.534;9.934;2023-05-10T20:28:45;7.53;;;4.47;;
70840;SDS011;58465;51.534;9.934;2023-05-10T20:31:11;7.30;;;4.18;;
70840;SDS011;58465;51.534;9.934;2023-05-10T20:33:36;7.40;;;4.40;;
70840;SDS011;58465;51.534;9.934;2023-05-10T20:36:02;9.43;;;4.82;;
70840;SDS011;58465;51.534;9.934;2023-05-10T20:38:28;6.72;;;4.45;;
70840;SDS011;58465;51.534;9.934;2023-05-10T20:40:53;7.35;;;4.68;;
70840;SDS011;58465;51.534;9.934;2023-05-10T20:43:20;7.32;;;4.85;;
70840;SDS011;58465;51.534;9.934;2023-05-10T20:45:46;7.25;;;4.57;;
70840;SDS011;58465;51.534;9.934;2023-05-10T20:48:12;8.18;;;4.28;;
70840;SDS011;58465;51.534;9.934;2023-05-10T20:50:38;10.10;;;4.63;;
70840;SDS011;58465;51.534;9.934;2023-05-10T20:53:03;7.22;;;4.40;;
70840;SDS011;58465;51.534;9.934;2023-05-10T20:55:28;7.05;;;4.60;;
70840;SDS011;58465;51.534;9.934;2023-05-10T20:57:54;10.95;;;5.05;;
70840;SDS011;58465;51.534;9.934;2023-05-10T21:00:19;9.63;;;4.80;;
70840;SDS011;58465;51.534;9.934;2023-05-10T21:02:45;7.40;;;4.53;;
70840;SDS011;58465;51.534;9.934;2023-05-10T21:05:10;7.88;;;4.55;;
70840;SDS011;58465;51.534;9.934;2023-05-10T21:07:36;8.02;;;4.70;;
70840;SDS011;58465;51.534;9.934;2023-05-10T21:10:01;11.38;;;5.35;;
70840;SDS011;58465;51.534;9.934;2023-05-10T21:12:27;9.90;;;4.70;;
70840;SDS011;58465;51.534;9.934;2023-05-10T21:14:52;11.02;;;5.30;;
70840;SDS011;58465;51.534;9.934;2023-05-10T21:17:17;12.07;;;5.00;;
70840;SDS011;58465;51.534;9.934;2023-05-10T21:19:42;9.00;;;5.13;;
70840;SDS011;58465;51.534;9.934;2023-05-10T21:22:08;9.05;;;5.25;;
70840;SDS011;58465;51.534;9.934;2023-05-10T21:24:33;8.65;;;4.90;;
70840;SDS011;58465;51.534;9.934;2023-05-10T21:26:59;9.13;;;5.15;;
70840;SDS011;58465;51.534;9.934;2023-05-10T21:29:25;12.10;;;5.30;;
70840;SDS011;58465;51.534;9.934;2023-05-10T21:31:50;8.02;;;4.80;;
70840;SDS011;58465;51.534;9.934;2023-05-10T21:34:15;8.85;;;5.30;;
70840;SDS011;58465;51.534;9.934;2023-05-10T21:36:41;8.95;;;4.93;;
70840;SDS011;58465;51.534;9.934;2023-05-10T21:39:07;10.70;;;5.47;;
70840;SDS011;58465;51.534;9.934;2023-05-10T21:41:32;7.13;;;4.78;;
70840;SDS011;58465;51.534;9.934;2023-05-10T21:43:57;8.13;;;4.88;;
70840;SDS011;58465;51.534;9.934;2023-05-10T21:46:23;8.48;;;4.35;;
70840;SDS011;58465;51.534;9.934;2023-05-10T21:48:48;9.65;;;4.80;;
70840;SDS011;58465;51.534;9.934;2023-05-10T21:51:13;9.80;;;5.00;;
70840;SDS011;58465;51.534;9.934;2023-05-10T21:53:39;8.13;;;4.80;;
70840;SDS011;58465;51.534;9.934;2023-05-10T21:56:04;8.55;;;4.85;;
70840;SDS011;58465;51.534;9.934;2023-05-10T21:58:31;10.20;;;4.47;;
70840;SDS011;58465;51.534;9.934;2023-05-10T22:01:03;8.65;;;4.47;;
70840;SDS011;58465;51.534;9.934;2023-05-10T22:03:28;7.32;;;4.45;;